Stanley, NC (28164)

09:27 AM EDT del 30 Settembre 2016 (GMT -0400)
Stanley, North Carolina | | Change Station

Alt. 827 ft 35.35 °N, 81.09 °W | Updated 2 seconds ago

Overcast
Coperto
67.6 °F
Sembra 67.6 °F
N
1.6
Vento Variabile Vento da NE
Gusts 3.8 mph

Oggi
Massima -- | Minima -- °F
--% Possibilità di precip.
Ieri
Massima -- | Minima -- °F
Precip. -- in
Pressione 29.99 in
Visibilità 10.0 miglia
Nuvole Molto nuvoloso 800 ft
Coperto 1100 ft
Punto di rugiada 9 °F
Umidità 10%
Piovosità 0.00 in
Spessore del manto nevoso Non disponibile.
7:18 AM 7:08 PM
Luna calante, 0% visible
METAR KIPJ 301310Z AUTO 15003KT 10SM BKN008 OVC011 20/18 A2999 RMK AO2 T01960184
Pressione 29.99 in
Visibilità 10.0 miglia
Nuvole Molto nuvoloso 800 ft
Coperto 1100 ft
Punto di rugiada 9 °F
Umidità 10%
Piovosità 0.00 in
Spessore del manto nevoso Non disponibile.
7:18 AM 7:08 PM
Luna calante, 0% visible
METAR KIPJ 301310Z AUTO 15003KT 10SM BKN008 OVC011 20/18 A2999 RMK AO2 T01960184

10-Day Weather Forecast

Almanac

Astronomia

Sep. 30, 2016 Alba Tramonto
Ora attuale
Crepuscolo civile
Crepuscolo nautico
Crepuscolo astronomico
Luna
Estensione della luce visibile
Lunghezza del giorno
Tomorrow will be .
, % of the Moon is Illuminated

Gli estremi di oggi

State Highs State Lows

Community

WunderPhotos

Upload Photos

1,942,708 foto caricate!

WunderBlog® & News

Nearby

Qualità dell'aria

  Qualità dell'aria Indice AQ Inquinante
Not available.

Profondità neve

Stazione Profondità Altitudine

Attività sismica

Città  Distanza Mag. Data & Ora
Minimo Magnitudo Mostrato è 2.5.

Temperature delle acque costiere

Località Temperatura

Stations

Stazioni meteo nelle vicinanze

Ubicazione della stazione Temp. Raffreddamento del vento Punto di rugiada Umidità Vento Precip. Alt. Aggiornato Tipo
                   

Watches & Warnings

There are currently no watches in effect.